Time;durP1;ratioP1;P1;durP2;ratioP2;P2;SDS_P1;SDS_P2;PMS_P1;PMS_P2;Temp;Humidity;BMP_temperature;BMP_pressure;BME280_temperature;BME280_humidity;BME280_pressure;Samples;Min_cycle;Max_cycle;Signal;HPM_P1;HPM_P2
2022/04/18 00:02:22;;;;;;;;;;;;;;;;;;5061405;28;1282;-67
2022/04/18 00:04:48;;;;;;;;;;;;;;;;;;5062232;28;867;-68
2022/04/18 00:07:13;;;;;;;;;;;;;;;;;;5062083;28;875;-67
2022/04/18 00:09:39;;;;;;;;;;;;;;;;;;5062011;28;1901;-68
2022/04/18 00:12:04;;;;;;;;;;;;;;;;;;5061283;28;1295;-67
2022/04/18 00:14:30;;;;;;;;;;;;;;;;;;5062022;28;820;-67
2022/04/18 00:16:56;;;;;;;;;;;;;;;;;;5062005;28;847;-67
2022/04/18 00:19:21;;;;;;;;;;;;;;;;;;5062090;28;807;-68
2022/04/18 00:21:46;;;;;;;;;;;;;;;;;;5061477;28;1216;-68
2022/04/18 00:24:14;;;;;;;;;;;;;;;;;;5061836;28;819;-67
2022/04/18 00:26:39;;;;;;;;;;;;;;;;;;5061860;28;832;-67
2022/04/18 00:29:05;;;;;;;;;;;;;;;;;;5061718;28;1918;-67
2022/04/18 00:31:30;;;;;;;;;;;;;;;;;;5061790;28;1049;-67
2022/04/18 00:33:55;;;;;;;;;;;;;;;;;;5061670;28;1349;-67
2022/04/18 00:36:20;;;;;;;;;;;;;;;;;;5061734;28;811;-67
2022/04/18 00:38:46;;;;;;;;;;;;;;;;;;5061693;28;1044;-67
2022/04/18 00:41:11;;;;;;;;;;;;;;;;;;5061419;28;836;-67
2022/04/18 00:43:46;;;;;;;;;;;;;;;;;;5061187;28;1291;-67
2022/04/18 00:46:12;;;;;;;;;;;;;;;;;;5061505;28;860;-67
2022/04/18 00:48:38;;;;;;;;;;;;;;;;;;5061584;28;1902;-68
2022/04/18 00:51:04;;;;;;;;;;;;;;;;;;5061304;28;894;-67
2022/04/18 00:53:30;;;;;;;;;;;;;;;;;;5061093;28;1275;-68
2022/04/18 00:55:55;;;;;;;;;;;;;;;;;;5061324;28;903;-67
2022/04/18 00:58:20;;;;;;;;;;;;;;;;;;5061570;28;816;-67
2022/04/18 01:00:46;;;;;;;;;;;;;;;;;;5059774;28;1309;-67
2022/04/18 01:03:11;;;;;;;;;;;;;;;;;;5060981;28;1275;-67
2022/04/18 01:05:36;;;;;;;;;;;;;;;;;;5061217;28;941;-67
2022/04/18 01:08:01;;;;;;;;;;;;;;;;;;5061212;28;1893;-67
2022/04/18 01:10:27;;;;;;;;;;;;;;;;;;5061150;28;950;-67
2022/04/18 01:12:52;;;;;;;;;;;;;;;;;;5060115;28;1187;-67
2022/04/18 01:15:17;;;;;;;;;;;;;;;;;;5060992;28;978;-68
2022/04/18 01:17:42;;;;;;;;;;;;;;;;;;5061163;28;922;-68
2022/04/18 01:20:08;;;;;;;;;;;;;;;;;;5059865;28;911;-67
2022/04/18 01:22:33;;;;;;;;;;;;;;;;;;5060589;28;1314;-67
2022/04/18 01:30:26;;;;;;;;;;;;;;;;;;5061609;28;678;-68
2022/04/18 01:32:51;;;;;;;;;;;;;;;;;;5060565;28;1176;-67
2022/04/18 01:35:16;;;;;;;;;;;;;;;;;;5060765;28;1033;-67
2022/04/18 01:37:41;;;;;;;;;;;;;;;;;;5060808;28;1073;-67
2022/04/18 01:40:07;;;;;;;;;;;;;;;;;;5063944;28;807;-67
2022/04/18 01:42:32;;;;;;;;;;;;;;;;;;5063925;28;1180;-68
2022/04/18 01:44:57;;;;;;;;;;;;;;;;;;5064502;28;804;-68
2022/04/18 01:47:23;;;;;;;;;;;;;;;;;;5064319;28;836;-67
2022/04/18 01:49:48;;;;;;;;;;;;;;;;;;5064224;28;1972;-68
2022/04/18 01:52:15;;;;;;;;;;;;;;;;;;5063237;28;1216;-68
2022/04/18 01:54:40;;;;;;;;;;;;;;;;;;5064288;28;756;-67
2022/04/18 01:57:05;;;;;;;;;;;;;;;;;;5064181;28;906;-68
2022/04/18 01:59:30;;;;;;;;;;;;;;;;;;5064190;28;893;-67
2022/04/18 02:01:56;;;;;;;;;;;;;;;;;;5063636;28;1259;-67
2022/04/18 02:04:21;;;;;;;;;;;;;;;;;;5064044;28;986;-67
2022/04/18 02:06:46;;;;;;;;;;;;;;;;;;5063855;28;899;-67
2022/04/18 02:09:11;;;;;;;;;;;;;;;;;;5063979;28;1890;-67
2022/04/18 02:11:36;;;;;;;;;;;;;;;;;;5063614;28;1306;-67
2022/04/18 02:14:01;;;;;;;;;;;;;;;;;;5063697;28;820;-67
2022/04/18 02:16:30;;;;;;;;;;;;;;;;;;5063875;28;870;-68
2022/04/18 02:18:55;;;;;;;;;;;;;;;;;;5062619;28;878;-67
2022/04/18 02:21:20;;;;;;;;;;;;;;;;;;5063682;28;918;-67
2022/04/18 02:23:45;;;;;;;;;;;;;;;;;;5063363;28;1427;-67
2022/04/18 02:26:11;;;;;;;;;;;;;;;;;;5063861;28;831;-67
2022/04/18 02:28:36;;;;;;;;;;;;;;;;;;5063619;28;1898;-68
2022/04/18 02:31:02;;;;;;;;;;;;;;;;;;5063642;28;871;-67
2022/04/18 02:33:27;;;;;;;;;;;;;;;;;;5062782;28;1318;-68
2022/04/18 02:35:52;;;;;;;;;;;;;;;;;;5062208;28;855;-67
2022/04/18 02:38:17;;;;;;;;;;;;;;;;;;5063625;28;978;-68
2022/04/18 02:40:43;;;;;;;;;;;;;;;;;;5063435;28;819;-68
2022/04/18 02:43:09;;;;;;;;;;;;;;;;;;5063095;28;1196;-68
2022/04/18 02:45:34;;;;;;;;;;;;;;;;;;5063384;28;855;-68
2022/04/18 02:47:59;;;;;;;;;;;;;;;;;;5062049;28;1964;-68
2022/04/18 02:50:25;;;;;;;;;;;;;;;;;;5062425;28;828;-68
2022/04/18 02:52:50;;;;;;;;;;;;;;;;;;5062838;28;1180;-68
2022/04/18 02:55:15;;;;;;;;;;;;;;;;;;5063493;28;946;-68
2022/04/18 02:57:40;;;;;;;;;;;;;;;;;;5063242;28;899;-68
2022/04/18 03:00:07;;;;;;;;;;;;;;;;;;5063113;28;851;-68
2022/04/18 03:02:32;;;;;;;;;;;;;;;;;;5061451;28;1351;-67
2022/04/18 03:04:57;;;;;;;;;;;;;;;;;;5063061;28;823;-68
2022/04/18 03:07:22;;;;;;;;;;;;;;;;;;5063020;28;887;-68
2022/04/18 03:09:47;;;;;;;;;;;;;;;;;;5061704;28;1897;-68
2022/04/18 03:12:13;;;;;;;;;;;;;;;;;;5062432;28;1168;-68
2022/04/18 03:14:38;;;;;;;;;;;;;;;;;;5063077;28;958;-68
2022/04/18 03:17:03;;;;;;;;;;;;;;;;;;5063038;28;929;-68
2022/04/18 03:19:29;;;;;;;;;;;;;;;;;;5062927;28;819;-68
2022/04/18 03:21:54;;;;;;;;;;;;;;;;;;5061269;28;1297;-68
2022/04/18 03:24:19;;;;;;;;;;;;;;;;;;5062346;28;986;-68
2022/04/18 03:26:45;;;;;;;;;;;;;;;;;;5062929;28;815;-68
2022/04/18 03:29:10;;;;;;;;;;;;;;;;;;5061440;28;1898;-68
2022/04/18 03:31:36;;;;;;;;;;;;;;;;;;5062704;28;1183;-68
2022/04/18 03:34:01;;;;;;;;;;;;;;;;;;5062381;28;835;-68
2022/04/18 03:41:54;;;;;;;;;;;;;;;;;;5062602;28;1228;-68
2022/04/18 03:44:19;;;;;;;;;;;;;;;;;;5062482;28;837;-68
2022/04/18 03:46:44;;;;;;;;;;;;;;;;;;5062285;28;832;-67
2022/04/18 03:49:10;;;;;;;;;;;;;;;;;;5062431;28;1893;-68
2022/04/18 03:51:36;;;;;;;;;;;;;;;;;;5062222;28;1188;-68
2022/04/18 03:54:01;;;;;;;;;;;;;;;;;;5061564;28;831;-68
2022/04/18 03:56:26;;;;;;;;;;;;;;;;;;5062365;28;906;-68
2022/04/18 03:58:51;;;;;;;;;;;;;;;;;;5062377;28;838;-68
2022/04/18 04:01:16;;;;;;;;;;;;;;;;;;5061689;28;981;-68
2022/04/18 04:03:42;;;;;;;;;;;;;;;;;;5061875;28;1263;-67
2022/04/18 04:06:07;;;;;;;;;;;;;;;;;;5062260;28;733;-68
2022/04/18 04:08:32;;;;;;;;;;;;;;;;;;5062073;28;1889;-68
2022/04/18 04:10:58;;;;;;;;;;;;;;;;;;5062151;28;819;-69
2022/04/18 04:13:23;;;;;;;;;;;;;;;;;;5061642;28;1298;-69
2022/04/18 04:15:48;;;;;;;;;;;;;;;;;;5060565;28;1309;-68
2022/04/18 04:18:14;;;;;;;;;;;;;;;;;;5061999;28;997;-67
2022/04/18 04:20:39;;;;;;;;;;;;;;;;;;5062271;28;938;-68
2022/04/18 04:23:04;;;;;;;;;;;;;;;;;;5061290;28;1208;-67
2022/04/18 04:25:29;;;;;;;;;;;;;;;;;;5061758;28;1049;-67
2022/04/18 04:27:54;;;;;;;;;;;;;;;;;;5061813;28;800;-68
2022/04/18 04:30:20;;;;;;;;;;;;;;;;;;5061546;28;1902;-68
2022/04/18 04:32:45;;;;;;;;;;;;;;;;;;5061316;28;1283;-67
2022/04/18 04:35:10;;;;;;;;;;;;;;;;;;5061238;28;911;-67
2022/04/18 04:37:36;;;;;;;;;;;;;;;;;;5061833;28;808;-67
2022/04/18 04:40:01;;;;;;;;;;;;;;;;;;5061675;28;923;-67
2022/04/18 04:42:26;;;;;;;;;;;;;;;;;;5061236;28;1172;-67
2022/04/18 04:44:51;;;;;;;;;;;;;;;;;;5061464;28;1096;-67
2022/04/18 04:47:17;;;;;;;;;;;;;;;;;;5061783;28;827;-67
2022/04/18 04:49:42;;;;;;;;;;;;;;;;;;5061703;28;1898;-68
2022/04/18 04:52:07;;;;;;;;;;;;;;;;;;5061091;28;1180;-67
2022/04/18 04:54:32;;;;;;;;;;;;;;;;;;5061368;28;856;-67
2022/04/18 04:56:58;;;;;;;;;;;;;;;;;;5061478;28;989;-68
2022/04/18 04:59:23;;;;;;;;;;;;;;;;;;5061219;28;978;-67
2022/04/18 05:01:48;;;;;;;;;;;;;;;;;;5060931;28;1204;-67
2022/04/18 05:04:13;;;;;;;;;;;;;;;;;;5061141;28;998;-67
2022/04/18 05:06:39;;;;;;;;;;;;;;;;;;5061316;28;903;-67
2022/04/18 05:09:04;;;;;;;;;;;;;;;;;;5061154;28;1955;-67
2022/04/18 05:11:29;;;;;;;;;;;;;;;;;;5061216;28;997;-67
2022/04/18 05:13:54;;;;;;;;;;;;;;;;;;5059220;28;1234;-67
2022/04/18 05:16:20;;;;;;;;;;;;;;;;;;5060943;28;785;-68
2022/04/18 05:18:45;;;;;;;;;;;;;;;;;;5061013;28;820;-68
2022/04/18 05:21:11;;;;;;;;;;;;;;;;;;5061156;28;843;-68
2022/04/18 05:23:36;;;;;;;;;;;;;;;;;;5060567;28;1208;-69
2022/04/18 05:26:01;;;;;;;;;;;;;;;;;;5061065;28;819;-68
2022/04/18 05:28:27;;;;;;;;;;;;;;;;;;5061407;28;1897;-68
2022/04/18 05:30:52;;;;;;;;;;;;;;;;;;5061107;28;878;-68
2022/04/18 05:33:18;;;;;;;;;;;;;;;;;;5060583;28;1255;-68
2022/04/18 05:35:43;;;;;;;;;;;;;;;;;;5060819;28;902;-69
2022/04/18 05:38:08;;;;;;;;;;;;;;;;;;5061101;28;985;-68
2022/04/18 05:40:33;;;;;;;;;;;;;;;;;;5060846;28;847;-69
2022/04/18 05:43:01;;;;;;;;;;;;;;;;;;5059201;28;1165;-69
2022/04/18 05:45:26;;;;;;;;;;;;;;;;;;5060443;28;1013;-69
2022/04/18 05:47:51;;;;;;;;;;;;;;;;;;5060802;28;973;-69
2022/04/18 05:50:16;;;;;;;;;;;;;;;;;;5060627;28;1894;-69
2022/04/18 05:52:41;;;;;;;;;;;;;;;;;;5060332;28;1199;-69
2022/04/18 05:55:07;;;;;;;;;;;;;;;;;;5060787;28;816;-69
2022/04/18 05:57:32;;;;;;;;;;;;;;;;;;5060485;28;820;-69
2022/04/18 05:59:58;;;;;;;;;;;;;;;;;;5060484;28;1057;-68
2022/04/18 06:02:23;;;;;;;;;;;;;;;;;;5060191;28;1188;-68
2022/04/18 06:04:48;;;;;;;;;;;;;;;;;;5060360;28;845;-68
2022/04/18 06:07:13;;;;;;;;;;;;;;;;;;5060350;28;958;-68
2022/04/18 06:09:38;;;;;;;;;;;;;;;;;;5060455;28;1923;-68
2022/04/18 06:12:04;;;;;;;;;;;;;;;;;;5060278;28;1203;-68
2022/04/18 06:14:29;;;;;;;;;;;;;;;;;;5059772;28;1006;-68
2022/04/18 06:16:54;;;;;;;;;;;;;;;;;;5060380;28;902;-68
2022/04/18 06:19:19;;;;;;;;;;;;;;;;;;5059062;28;1317;-68
2022/04/18 06:21:45;;;;;;;;;;;;;;;;;;5059919;28;1298;-68
2022/04/18 06:24:10;;;;;;;;;;;;;;;;;;5060256;28;919;-68
2022/04/18 06:26:36;;;;;;;;;;;;;;;;;;5063626;28;938;-69
2022/04/18 06:29:01;;;;;;;;;;;;;;;;;;5063643;28;1961;-68
2022/04/18 06:31:26;;;;;;;;;;;;;;;;;;5063602;28;883;-68
2022/04/18 06:33:51;;;;;;;;;;;;;;;;;;5061979;28;1263;-68
2022/04/18 06:36:17;;;;;;;;;;;;;;;;;;5063360;28;765;-68
2022/04/18 06:38:42;;;;;;;;;;;;;;;;;;5063703;28;884;-68
2022/04/18 06:41:10;;;;;;;;;;;;;;;;;;5063623;28;938;-68
2022/04/18 06:43:36;;;;;;;;;;;;;;;;;;5063341;28;1168;-68
2022/04/18 06:46:01;;;;;;;;;;;;;;;;;;5062908;28;914;-68
2022/04/18 06:48:26;;;;;;;;;;;;;;;;;;5063397;28;1914;-68
2022/04/18 06:50:51;;;;;;;;;;;;;;;;;;5063236;28;970;-68
2022/04/18 06:53:17;;;;;;;;;;;;;;;;;;5062863;28;1220;-69
2022/04/18 06:58:26;;;;;;;;;;;;;;;;;;5063513;28;634;-68
2022/04/18 07:00:51;;;;;;;;;;;;;;;;;;5063228;28;917;-68
2022/04/18 07:03:16;;;;;;;;;;;;;;;;;;5062872;28;1192;-68
2022/04/18 07:05:42;;;;;;;;;;;;;;;;;;5063073;28;903;-68
2022/04/18 07:08:08;;;;;;;;;;;;;;;;;;5062969;28;1881;-68
2022/04/18 07:10:33;;;;;;;;;;;;;;;;;;5063067;28;1032;-68
2022/04/18 07:12:58;;;;;;;;;;;;;;;;;;5062456;28;1263;-69
2022/04/18 07:15:23;;;;;;;;;;;;;;;;;;5062790;28;938;-68
2022/04/18 07:17:48;;;;;;;;;;;;;;;;;;5062881;28;835;-68
2022/04/18 07:20:14;;;;;;;;;;;;;;;;;;5061566;28;1206;-68
2022/04/18 07:22:39;;;;;;;;;;;;;;;;;;5062514;28;1172;-68
2022/04/18 07:25:05;;;;;;;;;;;;;;;;;;5062750;28;930;-68
2022/04/18 07:27:30;;;;;;;;;;;;;;;;;;5062725;28;1017;-68
2022/04/18 07:29:56;;;;;;;;;;;;;;;;;;5062704;28;1902;-69
2022/04/18 07:32:21;;;;;;;;;;;;;;;;;;5062354;28;1270;-69
2022/04/18 07:34:47;;;;;;;;;;;;;;;;;;5062180;28;993;-69
2022/04/18 07:37:12;;;;;;;;;;;;;;;;;;5061961;28;823;-69
2022/04/18 07:39:37;;;;;;;;;;;;;;;;;;5062661;28;914;-69
2022/04/18 07:42:03;;;;;;;;;;;;;;;;;;5062045;28;1216;-69
2022/04/18 07:44:28;;;;;;;;;;;;;;;;;;5062435;28;926;-69
2022/04/18 07:46:53;;;;;;;;;;;;;;;;;;5061135;28;1305;-68
2022/04/18 07:49:18;;;;;;;;;;;;;;;;;;5062262;28;1975;-69
2022/04/18 07:51:43;;;;;;;;;;;;;;;;;;5060738;28;1447;-68
2022/04/18 07:54:11;;;;;;;;;;;;;;;;;;5062344;28;906;-68
2022/04/18 07:56:36;;;;;;;;;;;;;;;;;;5062099;28;933;-68
2022/04/18 07:59:02;;;;;;;;;;;;;;;;;;5062282;28;815;-68
2022/04/18 08:01:27;;;;;;;;;;;;;;;;;;5062166;28;804;-68
2022/04/18 08:03:53;;;;;;;;;;;;;;;;;;5061760;28;1211;-68
2022/04/18 08:06:19;;;;;;;;;;;;;;;;;;5061496;28;808;-68
2022/04/18 08:08:44;;;;;;;;;;;;;;;;;;5061994;28;1961;-69
2022/04/18 08:11:11;;;;;;;;;;;;;;;;;;5062004;28;847;-68
2022/04/18 08:13:40;;;;;;;;;;;;;;;;;;5061697;28;1232;-68
2022/04/18 08:16:05;;;;;;;;;;;;;;;;;;5061979;28;899;-68
2022/04/18 08:18:31;;;;;;;;;;;;;;;;;;5061847;28;839;-68
2022/04/18 08:20:56;;;;;;;;;;;;;;;;;;5061946;28;811;-68
2022/04/18 08:23:22;;;;;;;;;;;;;;;;;;5061531;28;1188;-68
2022/04/18 08:25:47;;;;;;;;;;;;;;;;;;5061685;28;824;-68
2022/04/18 08:28:13;;;;;;;;;;;;;;;;;;5061773;28;1971;-68
2022/04/18 08:30:38;;;;;;;;;;;;;;;;;;5061825;28;871;-68
2022/04/18 08:33:03;;;;;;;;;;;;;;;;;;5061146;28;1196;-68
2022/04/18 08:35:32;;;;;;;;;;;;;;;;;;5061527;28;819;-68
2022/04/18 08:37:57;;;;;;;;;;;;;;;;;;5061715;28;898;-68
2022/04/18 08:40:22;;;;;;;;;;;;;;;;;;5061513;28;875;-68
2022/04/18 08:42:49;;;;;;;;;;;;;;;;;;5061213;28;1196;-68
2022/04/18 08:45:14;;;;;;;;;;;;;;;;;;5061353;28;1052;-68
2022/04/18 08:53:12;;;;;;;;;;;;;;;;;;5061440;28;1318;-68
2022/04/18 08:55:37;;;;;;;;;;;;;;;;;;5059548;28;1347;-68
2022/04/18 08:58:03;;;;;;;;;;;;;;;;;;5061436;28;903;-68
2022/04/18 09:00:28;;;;;;;;;;;;;;;;;;5061491;28;870;-68
2022/04/18 09:02:54;;;;;;;;;;;;;;;;;;5060962;28;1204;-68
2022/04/18 09:05:19;;;;;;;;;;;;;;;;;;5061043;28;819;-68
2022/04/18 09:07:55;;;;;;;;;;;;;;;;;;5061171;28;942;-68
2022/04/18 09:10:23;;;;;;;;;;;;;;;;;;5061182;28;1898;-68
2022/04/18 09:12:50;;;;;;;;;;;;;;;;;;5060683;28;1172;-69
2022/04/18 09:15:15;;;;;;;;;;;;;;;;;;5060959;28;886;-68
2022/04/18 09:17:40;;;;;;;;;;;;;;;;;;5061003;28;1001;-68
2022/04/18 09:20:07;;;;;;;;;;;;;;;;;;5060898;28;926;-68
2022/04/18 09:22:41;;;;;;;;;;;;;;;;;;5060635;28;1278;-68
2022/04/18 09:25:13;;;;;;;;;;;;;;;;;;5061200;28;1106;-68
2022/04/18 09:27:38;;;;;;;;;;;;;;;;;;5060987;28;871;-68
2022/04/18 09:30:04;;;;;;;;;;;;;;;;;;5060811;28;1898;-68
2022/04/18 09:32:30;;;;;;;;;;;;;;;;;;5060466;28;1270;-68
2022/04/18 09:35:02;;;;;;;;;;;;;;;;;;5061136;28;820;-68
2022/04/18 09:37:31;;;;;;;;;;;;;;;;;;5060535;28;911;-68
2022/04/18 09:39:56;;;;;;;;;;;;;;;;;;5060785;28;804;-68
2022/04/18 09:42:23;;;;;;;;;;;;;;;;;;5060235;28;1199;-69
2022/04/18 09:44:48;;;;;;;;;;;;;;;;;;5060771;28;978;-68
2022/04/18 09:47:14;;;;;;;;;;;;;;;;;;5060094;28;827;-68
2022/04/18 09:49:39;;;;;;;;;;;;;;;;;;5060570;28;1913;-68
2022/04/18 09:52:06;;;;;;;;;;;;;;;;;;5060608;28;1279;-68
2022/04/18 09:54:32;;;;;;;;;;;;;;;;;;5060637;28;804;-68
2022/04/18 09:57:01;;;;;;;;;;;;;;;;;;5060656;28;772;-68
2022/04/18 09:59:26;;;;;;;;;;;;;;;;;;5061211;28;895;-68
2022/04/18 10:01:52;;;;;;;;;;;;;;;;;;5063749;28;1183;-68
2022/04/18 10:04:18;;;;;;;;;;;;;;;;;;5064070;28;977;-68
2022/04/18 10:06:45;;;;;;;;;;;;;;;;;;5063815;28;891;-68
2022/04/18 10:09:11;;;;;;;;;;;;;;;;;;5064320;28;1898;-68
2022/04/18 10:11:37;;;;;;;;;;;;;;;;;;5063809;28;1188;-68
2022/04/18 10:14:03;;;;;;;;;;;;;;;;;;5063810;28;859;-68
2022/04/18 10:16:28;;;;;;;;;;;;;;;;;;5063773;28;874;-68
2022/04/18 10:18:56;;;;;;;;;;;;;;;;;;5063709;28;1037;-68
2022/04/18 10:21:29;;;;;;;;;;;;;;;;;;5063667;28;1160;-69
2022/04/18 10:24:00;;;;;;;;;;;;;;;;;;5045390;28;1271;-69
2022/04/18 10:26:45;;;;;;;;;;;;;;;;;;5063827;28;827;-68
2022/04/18 10:29:13;;;;;;;;;;;;;;;;;;5063691;28;1913;-68
2022/04/18 10:31:42;;;;;;;;;;;;;;;;;;5063376;28;1160;-68
2022/04/18 10:34:08;;;;;;;;;;;;;;;;;;5063590;28;792;-68
2022/04/18 10:36:34;;;;;;;;;;;;;;;;;;5063539;28;1014;-68
2022/04/18 10:39:06;;;;;;;;;;;;;;;;;;5063370;28;1006;-68
2022/04/18 10:41:35;;;;;;;;;;;;;;;;;;5062232;28;912;-68
2022/04/18 10:44:03;;;;;;;;;;;;;;;;;;5063164;28;910;-68
2022/04/18 10:46:28;;;;;;;;;;;;;;;;;;5063292;28;834;-68
2022/04/18 10:48:56;;;;;;;;;;;;;;;;;;5063537;28;1894;-68
2022/04/18 10:51:33;;;;;;;;;;;;;;;;;;5062118;28;859;-68
2022/04/18 10:54:06;;;;;;;;;;;;;;;;;;5061807;28;974;-68
2022/04/18 10:56:48;;;;;;;;;;;;;;;;;;5063247;28;929;-67
2022/04/18 10:59:14;;;;;;;;;;;;;;;;;;5063119;28;989;-68
2022/04/18 11:01:40;;;;;;;;;;;;;;;;;;5063219;28;1235;-68
2022/04/18 11:04:08;;;;;;;;;;;;;;;;;;5062882;28;819;-68
2022/04/18 11:06:36;;;;;;;;;;;;;;;;;;5063245;28;845;-68
2022/04/18 11:09:13;;;;;;;;;;;;;;;;;;5062849;28;2334;-68
2022/04/18 11:11:54;;;;;;;;;;;;;;;;;;5061801;28;1274;-68
2022/04/18 11:14:21;;;;;;;;;;;;;;;;;;5062880;28;902;-68
2022/04/18 11:16:48;;;;;;;;;;;;;;;;;;5062854;28;831;-68
2022/04/18 11:19:13;;;;;;;;;;;;;;;;;;5062783;28;927;-68
2022/04/18 11:24:37;;;;;;;;;;;;;;;;;;5062718;28;849;-68
2022/04/18 11:27:03;;;;;;;;;;;;;;;;;;5062693;28;878;-68
2022/04/18 11:29:30;;;;;;;;;;;;;;;;;;5062466;28;1961;-68
2022/04/18 11:31:55;;;;;;;;;;;;;;;;;;5062238;28;1247;-68
2022/04/18 11:34:24;;;;;;;;;;;;;;;;;;5062508;28;926;-68
2022/04/18 11:36:50;;;;;;;;;;;;;;;;;;5062601;28;808;-68
2022/04/18 11:39:16;;;;;;;;;;;;;;;;;;5062396;28;847;-68
2022/04/18 11:41:41;;;;;;;;;;;;;;;;;;5062373;28;1279;-68
2022/04/18 11:44:06;;;;;;;;;;;;;;;;;;5062535;28;855;-68
2022/04/18 11:46:31;;;;;;;;;;;;;;;;;;5062744;28;867;-69
2022/04/18 11:48:57;;;;;;;;;;;;;;;;;;5062505;28;1886;-70
2022/04/18 11:51:41;;;;;;;;;;;;;;;;;;5062311;28;898;-70
2022/04/18 11:54:07;;;;;;;;;;;;;;;;;;5062184;28;824;-68
2022/04/18 11:56:32;;;;;;;;;;;;;;;;;;5062387;28;966;-69
2022/04/18 11:59:02;;;;;;;;;;;;;;;;;;5061116;28;896;-71
2022/04/18 12:06:55;;;;;;;;;;;;;;;;;;5062630;28;657;-70
2022/04/18 12:09:25;;;;;;;;;;;;;;;;;;5062132;28;1894;-68
2022/04/18 12:11:50;;;;;;;;;;;;;;;;;;5061756;28;1291;-69
2022/04/18 12:14:18;;;;;;;;;;;;;;;;;;5062140;28;883;-69
2022/04/18 12:16:43;;;;;;;;;;;;;;;;;;5062197;28;839;-70
2022/04/18 12:19:12;;;;;;;;;;;;;;;;;;5061975;28;808;-68
2022/04/18 12:21:37;;;;;;;;;;;;;;;;;;5061982;28;1161;-68
2022/04/18 12:24:02;;;;;;;;;;;;;;;;;;5061458;28;994;-69
2022/04/18 12:26:29;;;;;;;;;;;;;;;;;;5062346;28;1113;-69
2022/04/18 12:28:58;;;;;;;;;;;;;;;;;;5061746;28;1902;-69
2022/04/18 12:31:23;;;;;;;;;;;;;;;;;;5061646;28;855;-70
2022/04/18 12:33:50;;;;;;;;;;;;;;;;;;5061481;28;1176;-68
2022/04/18 12:36:25;;;;;;;;;;;;;;;;;;5061817;28;803;-70
2022/04/18 12:38:51;;;;;;;;;;;;;;;;;;5061871;28;861;-68
2022/04/18 12:41:25;;;;;;;;;;;;;;;;;;5061800;28;780;-70
2022/04/18 12:43:50;;;;;;;;;;;;;;;;;;5061382;28;1204;-69
2022/04/18 12:46:16;;;;;;;;;;;;;;;;;;5061863;28;899;-70
2022/04/18 12:48:48;;;;;;;;;;;;;;;;;;5061626;28;1894;-69
2022/04/18 12:51:13;;;;;;;;;;;;;;;;;;5061557;28;894;-70
2022/04/18 12:53:52;;;;;;;;;;;;;;;;;;5061160;28;1254;-69
2022/04/18 12:56:21;;;;;;;;;;;;;;;;;;5061480;28;823;-69
2022/04/18 12:58:48;;;;;;;;;;;;;;;;;;5061276;28;898;-70
2022/04/18 13:01:23;;;;;;;;;;;;;;;;;;5061839;28;752;-70
2022/04/18 13:03:51;;;;;;;;;;;;;;;;;;5061224;28;1173;-68
2022/04/18 13:06:21;;;;;;;;;;;;;;;;;;5061603;28;934;-72
2022/04/18 13:08:46;;;;;;;;;;;;;;;;;;5061440;28;1957;-68
2022/04/18 13:11:11;;;;;;;;;;;;;;;;;;5061032;28;946;-70
2022/04/18 13:13:37;;;;;;;;;;;;;;;;;;5060909;28;1324;-71
2022/04/18 13:16:21;;;;;;;;;;;;;;;;;;5061012;28;1168;-69
2022/04/18 13:18:54;;;;;;;;;;;;;;;;;;5061093;28;859;-69
2022/04/18 13:21:19;;;;;;;;;;;;;;;;;;5060925;28;1013;-69
2022/04/18 13:23:45;;;;;;;;;;;;;;;;;;5060645;28;1247;-69
2022/04/18 13:26:10;;;;;;;;;;;;;;;;;;5061432;28;796;-67
2022/04/18 13:28:38;;;;;;;;;;;;;;;;;;5060984;28;1965;-68
2022/04/18 13:31:03;;;;;;;;;;;;;;;;;;5060660;28;879;-67
2022/04/18 13:33:29;;;;;;;;;;;;;;;;;;5060361;28;1160;-68
2022/04/18 13:38:38;;;;;;;;;;;;;;;;;;5060909;28;630;-68
2022/04/18 13:41:03;;;;;;;;;;;;;;;;;;5060595;28;919;-67
2022/04/18 13:43:28;;;;;;;;;;;;;;;;;;5059113;28;1251;-67
2022/04/18 13:45:54;;;;;;;;;;;;;;;;;;5060841;28;832;-70
2022/04/18 13:48:21;;;;;;;;;;;;;;;;;;5061112;28;1010;-68
2022/04/18 13:50:46;;;;;;;;;;;;;;;;;;5060410;28;863;-67
2022/04/18 13:53:12;;;;;;;;;;;;;;;;;;5060365;28;1247;-70
2022/04/18 13:55:37;;;;;;;;;;;;;;;;;;5060495;28;816;-67
2022/04/18 13:58:02;;;;;;;;;;;;;;;;;;5060614;28;974;-70
2022/04/18 14:00:28;;;;;;;;;;;;;;;;;;5059208;28;840;-69
2022/04/18 14:02:53;;;;;;;;;;;;;;;;;;5060386;28;1168;-68
2022/04/18 14:05:18;;;;;;;;;;;;;;;;;;5060545;28;997;-69
2022/04/18 14:07:43;;;;;;;;;;;;;;;;;;5060490;28;804;-68
2022/04/18 14:10:10;;;;;;;;;;;;;;;;;;5060260;28;1901;-68
2022/04/18 14:12:35;;;;;;;;;;;;;;;;;;5059886;28;1232;-68
2022/04/18 14:20:31;;;;;;;;;;;;;;;;;;5060615;28;626;-69
2022/04/18 14:22:57;;;;;;;;;;;;;;;;;;5060236;28;1172;-69
2022/04/18 14:25:24;;;;;;;;;;;;;;;;;;5060324;28;1017;-68
2022/04/18 14:27:49;;;;;;;;;;;;;;;;;;5060355;28;855;-69
2022/04/18 14:30:15;;;;;;;;;;;;;;;;;;5060192;28;1977;-68
2022/04/18 14:32:40;;;;;;;;;;;;;;;;;;5059829;28;1176;-71
2022/04/18 14:35:06;;;;;;;;;;;;;;;;;;5060216;28;898;-69
2022/04/18 14:37:31;;;;;;;;;;;;;;;;;;5060397;28;819;-69
2022/04/18 14:39:57;;;;;;;;;;;;;;;;;;5060283;28;910;-69
2022/04/18 14:42:25;;;;;;;;;;;;;;;;;;5059736;28;1164;-69
2022/04/18 14:44:51;;;;;;;;;;;;;;;;;;5060080;28;844;-70
2022/04/18 14:47:16;;;;;;;;;;;;;;;;;;5063290;28;943;-69
2022/04/18 14:49:41;;;;;;;;;;;;;;;;;;5063489;28;1889;-70
2022/04/18 14:52:09;;;;;;;;;;;;;;;;;;5062933;28;1188;-70
2022/04/18 14:54:34;;;;;;;;;;;;;;;;;;5063427;28;952;-70
2022/04/18 14:56:59;;;;;;;;;;;;;;;;;;5063417;28;887;-69
2022/04/18 14:59:24;;;;;;;;;;;;;;;;;;5063441;28;1231;-67
2022/04/18 15:01:49;;;;;;;;;;;;;;;;;;5062813;28;1267;-69
2022/04/18 15:04:15;;;;;;;;;;;;;;;;;;5063663;28;823;-69
2022/04/18 15:06:40;;;;;;;;;;;;;;;;;;5063131;28;1064;-70
2022/04/18 15:09:05;;;;;;;;;;;;;;;;;;5063033;28;1898;-70
2022/04/18 15:11:30;;;;;;;;;;;;;;;;;;5062478;28;799;-69
2022/04/18 15:13:55;;;;;;;;;;;;;;;;;;5062744;28;1168;-68
2022/04/18 15:16:21;;;;;;;;;;;;;;;;;;5061652;28;848;-68
2022/04/18 15:18:49;;;;;;;;;;;;;;;;;;5063022;28;1049;-68
2022/04/18 15:21:14;;;;;;;;;;;;;;;;;;5062862;28;835;-67
2022/04/18 15:23:39;;;;;;;;;;;;;;;;;;5061236;28;1204;-67
2022/04/18 15:26:04;;;;;;;;;;;;;;;;;;5062779;28;1060;-68
2022/04/18 15:28:30;;;;;;;;;;;;;;;;;;5062642;28;1905;-67
2022/04/18 15:33:39;;;;;;;;;;;;;;;;;;5062590;28;1272;-69
2022/04/18 15:36:05;;;;;;;;;;;;;;;;;;5062707;28;903;-69
2022/04/18 15:38:31;;;;;;;;;;;;;;;;;;5062700;28;898;-69
2022/04/18 15:40:56;;;;;;;;;;;;;;;;;;5062633;28;1010;-69
2022/04/18 15:43:22;;;;;;;;;;;;;;;;;;5062345;28;1199;-70
2022/04/18 15:45:47;;;;;;;;;;;;;;;;;;5062640;28;853;-69
2022/04/18 15:48:12;;;;;;;;;;;;;;;;;;5062582;28;1101;-69
2022/04/18 15:50:39;;;;;;;;;;;;;;;;;;5062394;28;1901;-72
2022/04/18 15:53:04;;;;;;;;;;;;;;;;;;5062184;28;1299;-70
2022/04/18 15:55:30;;;;;;;;;;;;;;;;;;5062372;28;859;-70
2022/04/18 15:57:56;;;;;;;;;;;;;;;;;;5061676;28;812;-69
2022/04/18 16:00:21;;;;;;;;;;;;;;;;;;5062314;28;831;-70
2022/04/18 16:02:46;;;;;;;;;;;;;;;;;;5050214;28;1256;-68
2022/04/18 16:05:13;;;;;;;;;;;;;;;;;;5042290;28;939;-69
2022/04/18 16:07:38;;;;;;;;;;;;;;;;;;5042151;28;961;-69
2022/04/18 16:10:04;;;;;;;;;;;;;;;;;;5042093;28;1898;-68
2022/04/18 16:12:29;;;;;;;;;;;;;;;;;;5041501;28;1188;-69
2022/04/18 16:14:55;;;;;;;;;;;;;;;;;;5042072;28;946;-67
2022/04/18 16:17:20;;;;;;;;;;;;;;;;;;5042037;28;1095;-68
2022/04/18 16:19:45;;;;;;;;;;;;;;;;;;5041948;28;997;-68
2022/04/18 16:22:10;;;;;;;;;;;;;;;;;;5039448;28;1725;-69
2022/04/18 16:24:35;;;;;;;;;;;;;;;;;;5042080;28;978;-70
2022/04/18 16:27:01;;;;;;;;;;;;;;;;;;5041894;28;1068;-69
2022/04/18 16:32:10;;;;;;;;;;;;;;;;;;5041404;28;1184;-69
2022/04/18 16:34:35;;;;;;;;;;;;;;;;;;5041828;28;840;-70
2022/04/18 16:37:00;;;;;;;;;;;;;;;;;;5041764;28;1021;-69
2022/04/18 16:39:25;;;;;;;;;;;;;;;;;;5041765;28;954;-67
2022/04/18 16:47:18;;;;;;;;;;;;;;;;;;5041722;28;725;-69
2022/04/18 16:49:44;;;;;;;;;;;;;;;;;;5041618;28;1974;-70
2022/04/18 16:52:10;;;;;;;;;;;;;;;;;;5041009;28;1160;-69
2022/04/18 16:54:36;;;;;;;;;;;;;;;;;;5041791;28;852;-68
2022/04/18 16:57:01;;;;;;;;;;;;;;;;;;5041466;28;848;-70
2022/04/18 16:59:26;;;;;;;;;;;;;;;;;;5041463;28;883;-69
2022/04/18 17:01:52;;;;;;;;;;;;;;;;;;5039713;28;1461;-69
2022/04/18 17:04:17;;;;;;;;;;;;;;;;;;5039611;28;1057;-69
2022/04/18 17:06:42;;;;;;;;;;;;;;;;;;5041230;28;816;-68
2022/04/18 17:09:07;;;;;;;;;;;;;;;;;;5040507;28;1894;-73
2022/04/18 17:11:32;;;;;;;;;;;;;;;;;;5041211;28;1192;-70
2022/04/18 17:13:58;;;;;;;;;;;;;;;;;;5040859;28;1022;-70
2022/04/18 17:16:23;;;;;;;;;;;;;;;;;;5041266;28;832;-70
2022/04/18 17:18:48;;;;;;;;;;;;;;;;;;5041279;28;879;-69
2022/04/18 17:21:14;;;;;;;;;;;;;;;;;;5040943;28;832;-70
2022/04/18 17:23:39;;;;;;;;;;;;;;;;;;5040761;28;1312;-69
2022/04/18 17:26:04;;;;;;;;;;;;;;;;;;5040099;28;848;-69
2022/04/18 17:28:30;;;;;;;;;;;;;;;;;;5041144;28;851;-68
2022/04/18 17:30:55;;;;;;;;;;;;;;;;;;5041205;28;804;-70
2022/04/18 17:33:21;;;;;;;;;;;;;;;;;;5040384;28;1200;-70
2022/04/18 17:35:46;;;;;;;;;;;;;;;;;;5040865;28;864;-69
2022/04/18 17:38:11;;;;;;;;;;;;;;;;;;5040973;28;875;-69
2022/04/18 17:40:36;;;;;;;;;;;;;;;;;;5041092;28;1030;-70
2022/04/18 17:43:01;;;;;;;;;;;;;;;;;;5039142;28;1293;-70
2022/04/18 17:45:27;;;;;;;;;;;;;;;;;;5040819;28;970;-69
2022/04/18 17:47:52;;;;;;;;;;;;;;;;;;5040965;28;855;-69
2022/04/18 17:50:18;;;;;;;;;;;;;;;;;;5040576;28;1956;-69
2022/04/18 17:52:43;;;;;;;;;;;;;;;;;;5040549;28;1188;-69